createdAt,value
2018-04-15T00:00:22.223Z,12.70
2018-04-15T00:02:48.219Z,12.80
2018-04-15T00:05:14.229Z,12.90
2018-04-15T00:07:40.933Z,13.10
2018-04-15T00:10:06.902Z,13.00
2018-04-15T00:12:33.681Z,13.10
2018-04-15T00:14:59.639Z,13.10
2018-04-15T00:17:25.608Z,13.10
2018-04-15T00:19:52.372Z,13.10
2018-04-15T00:22:19.084Z,13.10
2018-04-15T00:24:45.056Z,13.00
2018-04-15T00:27:11.687Z,13.10
2018-04-15T00:29:37.715Z,13.20
2018-04-15T00:32:03.711Z,13.30
2018-04-15T00:34:29.735Z,13.40
2018-04-15T00:36:55.724Z,13.40
2018-04-15T00:39:21.683Z,13.40
2018-04-15T00:41:54.700Z,13.40
2018-04-15T00:44:21.456Z,13.30
2018-04-15T00:46:48.160Z,13.30
2018-04-15T00:49:14.179Z,13.30
2018-04-15T00:51:40.164Z,13.30
2018-04-15T00:54:16.356Z,13.40
2018-04-15T00:56:43.080Z,13.30
2018-04-15T00:59:09.130Z,13.30
2018-04-15T01:01:35.288Z,13.20
2018-04-15T01:04:02.047Z,13.30
2018-04-15T01:06:28.037Z,13.30
2018-04-15T01:08:54.035Z,13.30
2018-04-15T01:11:20.001Z,13.40
2018-04-15T01:13:45.980Z,13.40
2018-04-15T01:16:12.787Z,13.30
2018-04-15T01:18:38.802Z,13.30
2018-04-15T01:21:04.927Z,13.30
2018-04-15T01:23:30.970Z,13.20
2018-04-15T01:25:56.979Z,13.10
2018-04-15T01:28:23.678Z,13.00
2018-04-15T01:30:49.646Z,13.00
2018-04-15T01:33:15.601Z,13.00
2018-04-15T01:35:42.303Z,12.90
2018-04-15T01:38:08.295Z,12.90
2018-04-15T01:40:35.149Z,12.90
2018-04-15T01:43:01.128Z,12.90
2018-04-15T01:45:27.104Z,12.90
2018-04-15T01:47:53.068Z,13.00
2018-04-15T01:50:19.305Z,13.00
2018-04-15T01:52:46.053Z,13.00
2018-04-15T01:55:12.802Z,13.00
2018-04-15T01:57:39.639Z,13.10
2018-04-15T02:00:05.642Z,13.10
2018-04-15T02:02:31.590Z,13.20
2018-04-15T02:04:57.557Z,13.30
2018-04-15T02:07:24.263Z,13.50
2018-04-15T02:09:50.218Z,13.50
2018-04-15T02:12:16.174Z,13.70
2018-04-15T02:14:49.453Z,13.80
2018-04-15T02:17:15.398Z,13.80
2018-04-15T02:19:41.346Z,13.90
2018-04-15T02:22:07.371Z,13.90
2018-04-15T02:24:33.340Z,13.90
2018-04-15T02:27:00.025Z,13.90
2018-04-15T02:29:26.203Z,13.90
2018-04-15T02:31:52.158Z,14.00
2018-04-15T02:34:18.859Z,13.90
2018-04-15T02:36:44.829Z,13.90
2018-04-15T02:39:10.792Z,14.00
2018-04-15T02:41:36.870Z,13.90
2018-04-15T02:44:02.867Z,14.00
2018-04-15T02:46:28.830Z,14.00
2018-04-15T02:48:54.783Z,13.90
2018-04-15T02:51:20.990Z,14.00
2018-04-15T02:53:46.989Z,14.00
2018-04-15T02:56:12.940Z,14.00
2018-04-15T02:58:39.701Z,14.00
2018-04-15T03:01:06.455Z,13.90
2018-04-15T03:03:33.201Z,13.90
2018-04-15T03:06:00.133Z,13.90
2018-04-15T03:08:26.098Z,13.90
2018-04-15T03:10:52.802Z,13.80
2018-04-15T03:13:18.897Z,13.80
2018-04-15T03:15:44.859Z,13.80
2018-04-15T03:18:10.805Z,13.80
2018-04-15T03:20:37.168Z,13.70
2018-04-15T03:23:03.159Z,13.60
2018-04-15T03:25:29.118Z,13.60
2018-04-15T03:27:55.085Z,13.50
2018-04-15T03:30:21.046Z,13.50
2018-04-15T03:32:47.747Z,13.40
2018-04-15T03:35:13.894Z,13.40
2018-04-15T03:37:39.841Z,13.30
2018-04-15T03:40:05.827Z,13.30
2018-04-15T03:42:31.804Z,13.30
2018-04-15T03:44:57.750Z,13.30
2018-04-15T03:47:23.706Z,13.30
2018-04-15T03:49:50.617Z,13.30
2018-04-15T03:52:16.606Z,13.30
2018-04-15T03:54:43.303Z,13.30
2018-04-15T03:57:09.261Z,13.30
2018-04-15T03:59:35.243Z,13.30
2018-04-15T04:02:01.199Z,13.20
2018-04-15T04:04:27.178Z,13.20
2018-04-15T04:06:53.130Z,13.30
2018-04-15T04:09:19.818Z,13.10
2018-04-15T04:11:45.786Z,13.10
2018-04-15T04:14:11.753Z,13.00
2018-04-15T04:16:38.597Z,12.90
2018-04-15T04:19:17.817Z,12.90
2018-04-15T04:21:56.215Z,12.80
2018-04-15T04:24:34.598Z,12.80
2018-04-15T04:27:01.299Z,12.80
2018-04-15T04:29:27.249Z,12.80
2018-04-15T04:31:53.385Z,12.80
2018-04-15T04:34:19.352Z,12.70
2018-04-15T04:36:45.310Z,12.80
2018-04-15T04:39:11.499Z,12.80
2018-04-15T04:41:37.458Z,12.80
2018-04-15T04:44:03.430Z,12.80
2018-04-15T04:46:29.406Z,12.80
2018-04-15T04:48:55.361Z,12.80
2018-04-15T04:51:21.318Z,12.70
2018-04-15T04:53:48.035Z,12.80
2018-04-15T04:56:13.995Z,12.80
2018-04-15T04:58:40.686Z,12.70
2018-04-15T05:01:06.682Z,12.70
2018-04-15T05:03:32.663Z,12.70
2018-04-15T05:05:58.626Z,12.70
2018-04-15T05:08:24.605Z,12.70
2018-04-15T05:10:51.294Z,12.70
2018-04-15T05:13:17.249Z,12.70
2018-04-15T05:15:43.226Z,12.80
2018-04-15T05:18:10.069Z,12.70
2018-04-15T05:20:36.805Z,12.70
2018-04-15T05:23:02.842Z,12.60
2018-04-15T05:25:28.797Z,12.70
2018-04-15T05:27:55.493Z,12.70
2018-04-15T05:30:21.572Z,12.70
2018-04-15T05:32:47.517Z,12.70
2018-04-15T05:35:14.209Z,12.70
2018-04-15T05:37:40.202Z,12.70
2018-04-15T05:40:06.932Z,12.70
2018-04-15T05:42:33.140Z,12.70
2018-04-15T05:44:59.121Z,12.70
2018-04-15T05:47:25.069Z,12.70
2018-04-15T05:49:51.772Z,12.70
2018-04-15T05:52:17.774Z,12.60
2018-04-15T05:54:43.713Z,12.70
2018-04-15T05:57:09.750Z,12.70
2018-04-15T05:59:35.888Z,12.70
2018-04-15T06:02:01.796Z,12.80
2018-04-15T06:04:27.742Z,12.70
2018-04-15T06:06:54.550Z,12.90
2018-04-15T06:09:20.489Z,12.80
2018-04-15T06:11:46.441Z,12.90
2018-04-15T06:14:12.663Z,13.00
2018-04-15T06:16:38.678Z,13.00
2018-04-15T06:19:04.686Z,13.00
2018-04-15T06:21:30.687Z,13.00
2018-04-15T06:23:56.657Z,13.10
2018-04-15T06:26:22.613Z,13.10
2018-04-15T06:28:48.989Z,13.20
2018-04-15T06:31:14.945Z,13.40
2018-04-15T06:33:40.897Z,13.50
2018-04-15T06:36:08.325Z,13.70
2018-04-15T06:38:34.336Z,13.60
2018-04-15T06:41:00.318Z,13.90
2018-04-15T06:43:26.281Z,14.00
2018-04-15T06:45:52.221Z,14.10
2018-04-15T06:48:18.170Z,14.30
2018-04-15T06:50:51.145Z,14.40
2018-04-15T06:53:17.839Z,14.40
2018-04-15T06:55:43.824Z,14.40
2018-04-15T06:58:09.785Z,14.40
2018-04-15T07:00:36.008Z,14.20
2018-04-15T07:03:02.019Z,14.30
2018-04-15T07:05:27.985Z,14.30
2018-04-15T07:07:53.938Z,14.30
2018-04-15T07:10:19.891Z,14.40
2018-04-15T07:12:45.903Z,14.80
2018-04-15T07:15:12.026Z,14.90
2018-04-15T07:17:38.770Z,15.10
2018-04-15T07:20:05.519Z,15.30
2018-04-15T07:22:32.262Z,15.50
2018-04-15T07:24:58.221Z,15.50
2018-04-15T07:27:24.984Z,15.80
2018-04-15T07:29:51.685Z,15.90
2018-04-15T07:32:17.751Z,15.90
2018-04-15T07:34:43.733Z,16.10
2018-04-15T07:37:09.681Z,16.30
2018-04-15T07:39:35.673Z,16.70
2018-04-15T07:42:01.750Z,17.10
2018-04-15T07:44:27.719Z,17.50
2018-04-15T07:46:53.697Z,18.00
2018-04-15T07:49:19.657Z,18.90
2018-04-15T07:51:45.614Z,21.50
2018-04-15T07:54:11.565Z,23.60
2018-04-15T07:56:37.582Z,24.40
2018-04-15T07:59:03.581Z,24.30
2018-04-15T08:01:29.533Z,24.40
2018-04-15T08:03:55.558Z,23.90
2018-04-15T08:06:21.510Z,25.00
2018-04-15T08:08:47.458Z,25.40
2018-04-15T08:11:13.599Z,26.60
2018-04-15T08:13:39.577Z,28.00
2018-04-15T08:16:05.577Z,27.00
2018-04-15T08:18:39.703Z,26.60
2018-04-15T08:21:05.692Z,26.50
2018-04-15T08:23:31.641Z,27.30
2018-04-15T08:25:57.781Z,28.50
2018-04-15T08:28:23.763Z,28.00
2018-04-15T08:30:49.709Z,27.50
2018-04-15T08:33:16.449Z,27.70
2018-04-15T08:35:42.423Z,27.70
2018-04-15T08:38:08.390Z,27.50
2018-04-15T08:40:34.481Z,27.50
2018-04-15T08:43:00.442Z,28.20
2018-04-15T08:45:26.403Z,27.80
2018-04-15T08:47:52.386Z,27.10
2018-04-15T08:50:18.333Z,27.50
2018-04-15T08:52:44.299Z,27.20
2018-04-15T08:55:10.277Z,27.20
2018-04-15T08:57:37.095Z,28.80
2018-04-15T09:00:03.131Z,28.80
2018-04-15T09:02:29.265Z,28.80
2018-04-15T09:04:55.238Z,28.00
2018-04-15T09:07:21.933Z,25.80
2018-04-15T09:09:47.995Z,25.80
2018-04-15T09:12:14.641Z,25.10
2018-04-15T09:14:40.668Z,25.00
2018-04-15T09:17:06.738Z,25.20
2018-04-15T09:19:32.791Z,24.20
2018-04-15T09:21:59.491Z,23.70
2018-04-15T09:24:25.453Z,23.70
2018-04-15T09:26:51.438Z,23.20
2018-04-15T09:29:17.403Z,22.50
2018-04-15T09:31:43.389Z,21.90
2018-04-15T09:34:10.190Z,21.20
2018-04-15T09:36:36.970Z,21.00
2018-04-15T09:39:03.163Z,20.90
2018-04-15T09:41:29.126Z,20.60
2018-04-15T09:43:55.077Z,20.30
2018-04-15T09:46:21.085Z,20.00
2018-04-15T09:48:47.745Z,19.70
2018-04-15T09:51:13.710Z,19.70
2018-04-15T09:53:46.718Z,19.50
2018-04-15T09:56:12.686Z,19.20
2018-04-15T09:58:38.646Z,18.70
2018-04-15T10:01:04.666Z,18.90
2018-04-15T10:03:30.633Z,19.00
2018-04-15T10:05:56.586Z,19.00
2018-04-15T10:08:22.571Z,19.10
2018-04-15T10:10:48.533Z,19.20
2018-04-15T10:13:14.491Z,19.10
2018-04-15T10:15:41.285Z,18.70
2018-04-15T10:18:07.269Z,18.80
2018-04-15T10:20:33.242Z,19.10
2018-04-15T10:22:59.987Z,19.70
2018-04-15T10:25:26.683Z,20.00
2018-04-15T10:27:52.638Z,20.00
2018-04-15T10:30:18.645Z,20.00
2018-04-15T10:32:44.664Z,19.80
2018-04-15T10:35:10.598Z,19.50
2018-04-15T10:37:36.610Z,19.20
2018-04-15T10:40:02.981Z,19.30
2018-04-15T10:42:28.934Z,19.40
2018-04-15T10:44:54.958Z,19.50
2018-04-15T10:47:20.931Z,19.60
2018-04-15T10:49:46.917Z,19.70
2018-04-15T10:52:13.109Z,19.80
2018-04-15T10:54:39.103Z,19.90
2018-04-15T10:57:05.115Z,20.00
2018-04-15T10:59:31.850Z,20.10
2018-04-15T11:01:57.801Z,20.00
2018-04-15T11:04:24.504Z,20.00
2018-04-15T11:06:50.502Z,19.90
2018-04-15T11:09:17.205Z,20.00
2018-04-15T11:11:43.198Z,19.90
2018-04-15T11:14:09.281Z,20.00
2018-04-15T11:16:35.218Z,20.00
2018-04-15T11:19:01.177Z,20.10
2018-04-15T11:21:27.934Z,20.20
2018-04-15T11:23:54.633Z,20.20
2018-04-15T11:26:20.578Z,20.20
2018-04-15T11:28:46.602Z,20.10
2018-04-15T11:31:12.546Z,20.10
2018-04-15T11:33:38.557Z,20.20
2018-04-15T11:36:04.746Z,20.30
2018-04-15T11:38:30.709Z,20.40
2018-04-15T11:40:57.486Z,20.40
2018-04-15T11:43:23.575Z,20.30
2018-04-15T11:45:49.526Z,20.40
2018-04-15T11:48:15.493Z,20.50
2018-04-15T11:50:41.488Z,20.60
2018-04-15T11:53:07.498Z,20.50
2018-04-15T11:55:33.526Z,20.30
2018-04-15T11:57:59.542Z,20.10
2018-04-15T12:00:25.493Z,20.10
2018-04-15T12:02:51.471Z,20.10
2018-04-15T12:05:17.617Z,19.80
2018-04-15T12:07:43.537Z,20.10
2018-04-15T12:10:09.571Z,20.30
2018-04-15T12:12:35.617Z,20.40
2018-04-15T12:15:02.374Z,20.70
2018-04-15T12:17:29.074Z,20.80
2018-04-15T12:19:55.058Z,20.80
2018-04-15T12:22:21.745Z,21.20
2018-04-15T12:24:47.705Z,21.20
2018-04-15T12:27:13.707Z,21.40
2018-04-15T12:29:40.423Z,21.10
2018-04-15T12:32:06.463Z,21.10
2018-04-15T12:34:32.697Z,21.40
2018-04-15T12:36:58.674Z,21.40
2018-04-15T12:39:25.365Z,21.60
2018-04-15T12:41:51.388Z,21.60
2018-04-15T12:44:17.437Z,21.60
2018-04-15T12:46:43.419Z,21.80
2018-04-15T12:49:10.272Z,22.00
2018-04-15T12:51:36.286Z,21.90
2018-04-15T12:54:02.251Z,22.00
2018-04-15T12:56:28.977Z,21.70
2018-04-15T12:58:54.935Z,21.70
2018-04-15T13:01:20.882Z,21.50
2018-04-15T13:03:48.060Z,21.80
2018-04-15T13:06:14.019Z,21.80
2018-04-15T13:08:40.009Z,21.80
2018-04-15T13:11:06.812Z,21.40
2018-04-15T13:13:32.817Z,21.40
2018-04-15T13:15:58.765Z,21.40
2018-04-15T13:18:24.737Z,21.50
2018-04-15T13:20:50.699Z,21.60
2018-04-15T13:23:17.390Z,21.70
2018-04-15T13:25:43.369Z,21.70
2018-04-15T13:28:09.353Z,21.80
2018-04-15T13:30:35.325Z,22.00
2018-04-15T13:33:01.311Z,21.90
2018-04-15T13:35:28.002Z,21.90
2018-04-15T13:37:53.960Z,21.90
2018-04-15T13:40:19.953Z,21.90
2018-04-15T13:42:46.074Z,22.10
2018-04-15T13:45:12.047Z,22.10
2018-04-15T13:47:38.134Z,22.20
2018-04-15T13:50:04.930Z,22.40
2018-04-15T13:52:30.887Z,22.40
2018-04-15T13:54:57.019Z,22.60
2018-04-15T13:57:22.970Z,22.60
2018-04-15T13:59:48.951Z,22.90
2018-04-15T14:02:14.959Z,23.10
2018-04-15T14:04:40.898Z,23.10
2018-04-15T14:07:07.653Z,23.00
2018-04-15T14:09:34.767Z,23.00
2018-04-15T14:12:00.721Z,22.90
2018-04-15T14:14:26.677Z,22.80
2018-04-15T14:16:53.385Z,22.70
2018-04-15T14:19:19.350Z,22.70
2018-04-15T14:21:45.359Z,22.60
2018-04-15T14:24:11.319Z,22.60
2018-04-15T14:26:37.367Z,22.70
2018-04-15T14:29:03.336Z,22.60
2018-04-15T14:31:29.726Z,22.60
2018-04-15T14:33:55.698Z,22.60
2018-04-15T14:36:22.390Z,22.50
2018-04-15T14:38:48.365Z,22.60
2018-04-15T14:41:14.337Z,22.80
2018-04-15T14:43:40.499Z,22.90
2018-04-15T14:46:06.522Z,22.90
2018-04-15T14:48:32.513Z,23.00
2018-04-15T14:50:59.210Z,23.10
2018-04-15T14:53:25.216Z,23.10
2018-04-15T14:55:51.155Z,23.10
2018-04-15T14:58:17.850Z,23.20
2018-04-15T15:00:43.827Z,23.20
2018-04-15T15:03:09.837Z,23.40
2018-04-15T15:05:35.845Z,23.30
2018-04-15T15:08:02.005Z,23.30
2018-04-15T15:10:27.981Z,23.30
2018-04-15T15:12:54.679Z,23.40
2018-04-15T15:15:20.655Z,23.40
2018-04-15T15:17:47.359Z,23.10
2018-04-15T15:20:13.367Z,23.20
2018-04-15T15:22:40.306Z,23.00
2018-04-15T15:25:06.305Z,23.00
2018-04-15T15:27:32.244Z,22.90
2018-04-15T15:29:58.250Z,22.80
2018-04-15T15:32:24.244Z,22.80
2018-04-15T15:34:50.227Z,22.80
2018-04-15T15:37:16.293Z,22.60
2018-04-15T15:39:42.273Z,22.60
2018-04-15T15:42:09.046Z,22.50
2018-04-15T15:44:35.158Z,22.50
2018-04-15T15:47:01.865Z,22.20
2018-04-15T15:49:27.849Z,22.20
2018-04-15T15:51:54.665Z,22.20
2018-04-15T15:54:20.642Z,22.20
2018-04-15T15:56:47.363Z,21.80
2018-04-15T15:59:13.397Z,21.80
2018-04-15T16:01:39.429Z,21.90
2018-04-15T16:04:05.478Z,21.70
2018-04-15T16:06:31.482Z,21.90
2018-04-15T16:08:57.684Z,21.90
2018-04-15T16:11:24.373Z,21.50
2018-04-15T16:13:50.355Z,21.50
2018-04-15T16:16:17.061Z,21.10
2018-04-15T16:18:43.009Z,21.00
2018-04-15T16:21:09.174Z,21.10
2018-04-15T16:23:35.166Z,21.10
2018-04-15T16:28:34.891Z,21.00
2018-04-15T16:31:00.863Z,21.00
2018-04-15T16:33:26.822Z,21.10
2018-04-15T16:35:52.878Z,21.40
2018-04-15T16:38:18.831Z,21.50
2018-04-15T16:40:45.596Z,21.60
2018-04-15T16:43:11.902Z,21.50
2018-04-15T16:45:37.967Z,21.60
2018-04-15T16:48:03.998Z,21.60
2018-04-15T16:50:30.719Z,21.60
2018-04-15T16:52:56.673Z,21.60
2018-04-15T16:55:23.381Z,21.50
2018-04-15T16:57:49.530Z,21.50
2018-04-15T17:00:15.533Z,21.40
2018-04-15T17:02:41.439Z,21.20
2018-04-15T17:05:08.255Z,21.00
2018-04-15T17:07:34.280Z,21.00
2018-04-15T17:10:00.265Z,20.90
2018-04-15T17:12:26.993Z,20.60
2018-04-15T17:14:52.967Z,20.60
2018-04-15T17:17:18.967Z,20.50
2018-04-15T17:19:45.090Z,20.40
2018-04-15T17:22:11.073Z,20.10
2018-04-15T17:24:37.822Z,19.70
2018-04-15T17:27:03.898Z,19.70
2018-04-15T17:29:29.938Z,19.50
2018-04-15T17:31:55.959Z,19.30
2018-04-15T17:34:21.882Z,19.20
2018-04-15T17:36:47.829Z,19.20
2018-04-15T17:39:13.825Z,19.10
2018-04-15T17:41:39.829Z,19.00
2018-04-15T17:44:05.830Z,18.80
2018-04-15T17:46:31.781Z,18.80
2018-04-15T17:48:57.938Z,18.80
2018-04-15T17:51:23.905Z,18.80
2018-04-15T17:53:50.608Z,18.70
2018-04-15T17:56:16.581Z,18.70
2018-04-15T17:58:42.546Z,18.60
2018-04-15T18:01:09.307Z,18.40
2018-04-15T18:03:35.604Z,18.40
2018-04-15T18:06:01.567Z,18.30
2018-04-15T18:08:28.266Z,18.10
2018-04-15T18:10:54.242Z,18.10
2018-04-15T18:13:20.207Z,18.10
2018-04-15T18:15:46.158Z,18.00
2018-04-15T18:18:12.129Z,17.90
2018-04-15T18:20:38.132Z,17.80
2018-04-15T18:23:04.327Z,17.80
2018-04-15T18:25:30.953Z,17.70
2018-04-15T18:27:56.902Z,17.70
2018-04-15T18:30:23.077Z,17.70
2018-04-15T18:32:49.153Z,17.70
2018-04-15T18:35:15.101Z,17.60
2018-04-15T18:37:41.081Z,17.50
2018-04-15T18:40:07.069Z,17.50
2018-04-15T18:42:33.071Z,17.60
2018-04-15T18:44:59.026Z,17.60
2018-04-15T18:47:25.612Z,17.60
2018-04-15T18:49:51.574Z,17.50
2018-04-15T18:52:17.526Z,17.50
2018-04-15T18:54:43.530Z,17.40
2018-04-15T18:57:10.290Z,17.40
2018-04-15T18:59:36.305Z,17.50
2018-04-15T19:02:02.273Z,17.40
2018-04-15T19:04:28.270Z,17.40
2018-04-15T19:06:54.239Z,17.30
2018-04-15T19:09:21.038Z,17.30
2018-04-15T19:11:46.993Z,17.30
2018-04-15T19:14:12.955Z,17.30
2018-04-15T19:16:39.728Z,17.30
2018-04-15T19:19:05.707Z,17.30
2018-04-15T19:21:31.689Z,17.30
2018-04-15T19:23:57.673Z,17.30
2018-04-15T19:26:23.630Z,17.30
2018-04-15T19:28:49.573Z,17.30
2018-04-15T19:31:15.698Z,17.30
2018-04-15T19:33:41.653Z,17.30
2018-04-15T19:36:08.379Z,17.20
2018-04-15T19:38:34.481Z,17.10
2018-04-15T19:41:00.507Z,17.20
2018-04-15T19:43:27.463Z,17.10
2018-04-15T19:45:53.651Z,17.10
2018-04-15T19:48:19.622Z,17.10
2018-04-15T19:50:46.333Z,17.10
2018-04-15T19:53:12.515Z,17.00
2018-04-15T19:55:38.488Z,17.00
2018-04-15T19:58:04.489Z,17.00
2018-04-15T20:00:31.241Z,17.00
2018-04-15T20:02:57.190Z,17.00
2018-04-15T20:05:23.156Z,17.00
2018-04-15T20:07:49.154Z,17.00
2018-04-15T20:10:15.107Z,17.00
2018-04-15T20:12:41.061Z,17.00
2018-04-15T20:15:07.114Z,17.00
2018-04-15T20:17:40.115Z,16.90
2018-04-15T20:20:06.118Z,16.90
2018-04-15T20:22:32.070Z,16.80
2018-04-15T20:24:58.042Z,16.80
2018-04-15T20:27:24.026Z,16.70
2018-04-15T20:29:49.984Z,16.60
2018-04-15T20:32:15.935Z,16.60
2018-04-15T20:34:42.068Z,16.40
2018-04-15T20:37:08.051Z,16.30
2018-04-15T20:39:34.010Z,16.30
2018-04-15T20:42:07.623Z,16.30
2018-04-15T20:44:33.598Z,16.30
2018-04-15T20:46:59.541Z,16.20
2018-04-15T20:49:25.532Z,16.10
2018-04-15T20:51:51.720Z,15.90
2018-04-15T20:54:17.665Z,15.70
2018-04-15T20:56:43.632Z,15.50
2018-04-15T20:59:09.746Z,15.30
2018-04-15T21:01:36.473Z,15.10
2018-04-15T21:04:03.161Z,15.00
2018-04-15T21:06:29.166Z,15.00
2018-04-15T21:08:55.139Z,14.80
2018-04-15T21:11:21.131Z,14.80
2018-04-15T21:13:47.090Z,14.80
2018-04-15T21:16:13.929Z,14.90
2018-04-15T21:18:40.734Z,15.00
2018-04-15T21:21:06.702Z,15.00
2018-04-15T21:23:32.669Z,15.10
2018-04-15T21:25:59.413Z,14.80
2018-04-15T21:28:25.367Z,14.80
2018-04-15T21:30:52.075Z,14.60
2018-04-15T21:33:18.034Z,14.60
2018-04-15T21:35:43.988Z,14.60
2018-04-15T21:38:10.695Z,14.60
2018-04-15T21:40:36.723Z,14.60
2018-04-15T21:43:03.188Z,14.60
2018-04-15T21:45:29.154Z,14.60
2018-04-15T21:47:55.916Z,14.50
2018-04-15T21:50:21.885Z,14.50
2018-04-15T21:52:47.854Z,14.50
2018-04-15T21:55:13.821Z,14.50
2018-04-15T21:57:40.518Z,14.60
2018-04-15T22:00:06.758Z,14.60
2018-04-15T22:02:32.784Z,14.70
2018-04-15T22:04:58.774Z,14.80
2018-04-15T22:07:25.499Z,15.00
2018-04-15T22:09:51.499Z,15.00
2018-04-15T22:12:17.477Z,15.00
2018-04-15T22:14:43.477Z,15.00
2018-04-15T22:17:09.964Z,15.00
2018-04-15T22:19:36.759Z,14.90
2018-04-15T22:22:02.730Z,14.90
2018-04-15T22:24:28.754Z,14.80
2018-04-15T22:26:54.721Z,14.60
2018-04-15T22:29:20.689Z,14.50
2018-04-15T22:31:47.439Z,14.60
2018-04-15T22:34:14.174Z,14.70
2018-04-15T22:36:40.180Z,14.70
2018-04-15T22:39:06.205Z,14.70
2018-04-15T22:41:32.187Z,14.80
2018-04-15T22:43:58.152Z,14.70
2018-04-15T22:46:24.126Z,14.70
2018-04-15T22:48:56.007Z,14.70
2018-04-15T22:51:21.959Z,14.70
2018-04-15T22:53:48.107Z,14.70
2018-04-15T22:56:14.837Z,14.70
2018-04-15T22:58:46.810Z,14.70
2018-04-15T23:01:13.766Z,14.70
2018-04-15T23:03:39.735Z,14.60
2018-04-15T23:06:06.461Z,14.70
2018-04-15T23:08:32.601Z,14.70
2018-04-15T23:10:58.608Z,14.70
2018-04-15T23:13:24.582Z,14.60
2018-04-15T23:15:50.595Z,14.50
2018-04-15T23:18:16.545Z,14.40
2018-04-15T23:20:42.525Z,14.50
2018-04-15T23:23:08.535Z,14.50
2018-04-15T23:25:34.518Z,14.40
2018-04-15T23:28:00.483Z,14.40
2018-04-15T23:30:26.460Z,14.40
2018-04-15T23:32:53.146Z,14.30
2018-04-15T23:35:19.111Z,14.30
2018-04-15T23:37:45.545Z,14.20
2018-04-15T23:40:11.494Z,14.10
2018-04-15T23:42:37.490Z,14.10
2018-04-15T23:45:03.519Z,14.10
2018-04-15T23:47:29.484Z,14.20
2018-04-15T23:49:55.442Z,14.20
2018-04-15T23:52:21.572Z,14.10
2018-04-15T23:54:47.544Z,14.10
2018-04-15T23:57:14.261Z,14.00
2018-04-15T23:59:40.254Z,14.00
